Palma De Mallorca, Spain

5:59 AM CEST on July 28, 2016 (GMT +0200)
Es Pil.lari | | Change Station

Elev 3 ft 39.53 °N, 2.74 °E | Updated 2 seconds ago

Clear
Clear
70.5 °F
Feels Like 70.5 °F
N
0.0
Wind Variable Wind from NNW
Gusts 0.0 mph

Today
High -- | Low -- °F
--% Chance of Precip.
Yesterday
High -- | Low -- °F
Precip. -- in
Pressure 30.06 in
Visibility -9999.0 miles
Clouds
Dew Point 66 °F
Humidity 85%
Rainfall 0.00 in
Snow Depth Not available.
6:45 AM 9:05 PM
Last Quarter, 36% visible
METAR LEPA 280330Z 06003KT CAVOK 22/19 Q1018 NOSIG
Pressure 30.06 in
Visibility -9999.0 miles
Clouds
Dew Point 66 °F
Humidity 85%
Rainfall 0.00 in
Snow Depth Not available.
6:45 AM 9:05 PM
Last Quarter, 36% visible
METAR LEPA 280330Z 06003KT CAVOK 22/19 Q1018 NOSIG

10-Day Weather Forecast

×

Almanac

Astronomy

Jul. 28, 2016 Rise Set
Actual Time
Civil Twilight
Nautical Twilight
Astronomical Twilight
Moon
Length of Visible Light
Length of Day
Tomorrow will be .
, % of the Moon is Illuminated

Today's Extremes

Country Highs Country Lows

Community

WunderPhotos

Upload Photos

1,928,037 photos uploaded!

WunderBlog® & News

Nearby

Air Quality

  Air Quality AQ Index Pollutant
Not available.

Snow Depth

Station Depth Elevation

Earthquake Activity

City Distance Mag. Time & Date
Minimum magnitude displayed is 2.5.

Coastal Water Temperatures

Place Temperature

Stations

Nearby Weather Stations

Station Location Temp. Windchill Dew Point Humidity Wind Precip. Elev Updated Type